Herzlich willkommen!

Am freundlichen Bodensee-Flugplatz zwischen Schwarzwald, Rhein und Alpen.

Aktuelles

Es liegen keine aktuellen Meldungen vor. Wir freuen uns auf Ihren Besuch!

Live am Platz

Die Bilder unserer Webcams werden alle 5 Minuten aktualisiert.

Sonnenaufgang:

04:11 UTC / 06:11 Lokal

Sonnenuntergang:

18:30 UTC / 20:30 Lokal

METAR (26.04.2018 06:50 UTC):

EDNY 260650Z VRB01KT 9999 -RA FEW031 OVC043 10/09 Q1020
VFR

TAF (26.04.2018 05:00 UTC):

TAF EDNY 260500Z 2606/2706 25007KT 9999 SCT030 BECMG 2616/2618 VRB03KT

Alle Angaben unverbindlich und ohne Gewähr. Zeiten genähert.

Für den Verkehrslandeplatz Konstanz werden keine offiziellen Wetterinformationen herausgegeben. Daher werden zur Orientierung Daten des nahegelegenen Flughafens Friedrichshafen dargestellt.